sensor_id;sensor_type;location;lat;lon;timestamp;pressure;altitude;pressure_sealevel;temperature;humidity
37238;BME280;23129;49.662;8.448;2024-03-17T00:02:19;101546.59;;;8.01;100.00
37238;BME280;23129;49.662;8.448;2024-03-17T00:04:46;101540.50;;;7.96;100.00
37238;BME280;23129;49.662;8.448;2024-03-17T00:07:13;101545.72;;;7.91;100.00
37238;BME280;23129;49.662;8.448;2024-03-17T00:09:41;101548.34;;;7.87;100.00
37238;BME280;23129;49.662;8.448;2024-03-17T00:12:08;101550.06;;;7.82;100.00
37238;BME280;23129;49.662;8.448;2024-03-17T00:14:36;101550.06;;;7.75;100.00
37238;BME280;23129;49.662;8.448;2024-03-17T00:17:03;101550.91;;;7.71;100.00
37238;BME280;23129;49.662;8.448;2024-03-17T00:19:30;101544.81;;;7.69;100.00
37238;BME280;23129;49.662;8.448;2024-03-17T00:21:58;101546.53;;;7.67;100.00
37238;BME280;23129;49.662;8.448;2024-03-17T00:24:25;101541.31;;;7.64;100.00
37238;BME280;23129;49.662;8.448;2024-03-17T00:27:04;101544.81;;;7.65;100.00
37238;BME280;23129;49.662;8.448;2024-03-17T00:29:30;101546.53;;;7.64;100.00
37238;BME280;23129;49.662;8.448;2024-03-17T00:31:58;101537.81;;;7.62;100.00
37238;BME280;23129;49.662;8.448;2024-03-17T00:34:25;101534.38;;;7.60;100.00
37238;BME280;23129;49.662;8.448;2024-03-17T00:36:52;101533.47;;;7.60;100.00
37238;BME280;23129;49.662;8.448;2024-03-17T00:39:19;101532.59;;;7.59;100.00
37238;BME280;23129;49.662;8.448;2024-03-17T00:41:46;101543.03;;;7.59;100.00
37238;BME280;23129;49.662;8.448;2024-03-17T00:44:13;101525.66;;;7.58;100.00
37238;BME280;23129;49.662;8.448;2024-03-17T00:46:40;101527.38;;;7.56;100.00
37238;BME280;23129;49.662;8.448;2024-03-17T00:49:09;101518.69;;;7.54;100.00
37238;BME280;23129;49.662;8.448;2024-03-17T00:51:37;101514.31;;;7.51;100.00
37238;BME280;23129;49.662;8.448;2024-03-17T00:54:04;101516.06;;;7.49;100.00
37238;BME280;23129;49.662;8.448;2024-03-17T00:56:31;101516.91;;;7.47;100.00
37238;BME280;23129;49.662;8.448;2024-03-17T00:58:58;101512.56;;;7.44;100.00
37238;BME280;23129;49.662;8.448;2024-03-17T01:01:25;101517.78;;;7.43;100.00
37238;BME280;23129;49.662;8.448;2024-03-17T01:03:52;101515.16;;;7.40;100.00
37238;BME280;23129;49.662;8.448;2024-03-17T01:06:21;101502.97;;;7.36;100.00
37238;BME280;23129;49.662;8.448;2024-03-17T01:08:47;101509.94;;;7.30;100.00
37238;BME280;23129;49.662;8.448;2024-03-17T01:11:16;101504.69;;;7.24;100.00
37238;BME280;23129;49.662;8.448;2024-03-17T01:13:45;101495.97;;;7.16;100.00
37238;BME280;23129;49.662;8.448;2024-03-17T01:16:16;101501.16;;;7.10;100.00
37238;BME280;23129;49.662;8.448;2024-03-17T01:18:43;101496.78;;;7.04;100.00
37238;BME280;23129;49.662;8.448;2024-03-17T01:21:11;101489.81;;;6.99;100.00
37238;BME280;23129;49.662;8.448;2024-03-17T01:23:38;101490.66;;;6.92;100.00
37238;BME280;23129;49.662;8.448;2024-03-17T01:26:05;101487.16;;;6.85;100.00
37238;BME280;23129;49.662;8.448;2024-03-17T01:28:32;101490.59;;;6.81;100.00
37238;BME280;23129;49.662;8.448;2024-03-17T01:30:59;101479.28;;;6.76;100.00
37238;BME280;23129;49.662;8.448;2024-03-17T01:33:25;101474.94;;;6.70;100.00
37238;BME280;23129;49.662;8.448;2024-03-17T01:35:53;101484.44;;;6.63;100.00
37238;BME280;23129;49.662;8.448;2024-03-17T01:38:19;101490.47;;;6.58;100.00
37238;BME280;23129;49.662;8.448;2024-03-17T01:40:47;101483.50;;;6.51;100.00
37238;BME280;23129;49.662;8.448;2024-03-17T01:43:13;101488.66;;;6.43;100.00
37238;BME280;23129;49.662;8.448;2024-03-17T01:45:41;101480.81;;;6.37;100.00
37238;BME280;23129;49.662;8.448;2024-03-17T01:48:14;101478.16;;;6.29;100.00
37238;BME280;23129;49.662;8.448;2024-03-17T01:50:44;101480.72;;;6.25;100.00
37238;BME280;23129;49.662;8.448;2024-03-17T01:53:13;101478.09;;;6.17;100.00
37238;BME280;23129;49.662;8.448;2024-03-17T01:55:44;101474.56;;;6.12;100.00
37238;BME280;23129;49.662;8.448;2024-03-17T01:58:11;101466.72;;;6.06;100.00
37238;BME280;23129;49.662;8.448;2024-03-17T02:00:40;101463.22;;;6.02;100.00
37238;BME280;23129;49.662;8.448;2024-03-17T02:03:07;101462.34;;;6.02;100.00
37238;BME280;23129;49.662;8.448;2024-03-17T02:05:35;101459.69;;;5.97;100.00
37238;BME280;23129;49.662;8.448;2024-03-17T02:08:05;101455.34;;;5.94;100.00
37238;BME280;23129;49.662;8.448;2024-03-17T02:10:33;101452.69;;;5.91;100.00
37238;BME280;23129;49.662;8.448;2024-03-17T02:13:01;101454.44;;;5.92;100.00
37238;BME280;23129;49.662;8.448;2024-03-17T02:15:30;101450.06;;;5.91;100.00
37238;BME280;23129;49.662;8.448;2024-03-17T02:17:57;101450.94;;;5.90;100.00
37238;BME280;23129;49.662;8.448;2024-03-17T02:20:25;101441.41;;;5.89;100.00
37238;BME280;23129;49.662;8.448;2024-03-17T02:23:12;101441.38;;;5.86;100.00
37238;BME280;23129;49.662;8.448;2024-03-17T02:25:39;101443.09;;;5.84;100.00
37238;BME280;23129;49.662;8.448;2024-03-17T02:28:07;101444.81;;;5.82;100.00
37238;BME280;23129;49.662;8.448;2024-03-17T02:30:33;101437.84;;;5.78;100.00
37238;BME280;23129;49.662;8.448;2024-03-17T02:33:01;101441.28;;;5.76;100.00
37238;BME280;23129;49.662;8.448;2024-03-17T02:35:28;101435.19;;;5.73;100.00
37238;BME280;23129;49.662;8.448;2024-03-17T02:37:55;101441.22;;;5.71;100.00
37238;BME280;23129;49.662;8.448;2024-03-17T02:40:22;101444.69;;;5.67;100.00
37238;BME280;23129;49.662;8.448;2024-03-17T02:42:50;101439.47;;;5.65;100.00
37238;BME280;23129;49.662;8.448;2024-03-17T02:45:17;101443.78;;;5.65;100.00
37238;BME280;23129;49.662;8.448;2024-03-17T02:47:46;101442.94;;;5.66;100.00
37238;BME280;23129;49.662;8.448;2024-03-17T02:50:16;101437.78;;;5.69;100.00
37238;BME280;23129;49.662;8.448;2024-03-17T02:52:43;101432.56;;;5.70;100.00
37238;BME280;23129;49.662;8.448;2024-03-17T02:55:11;101436.94;;;5.71;100.00
37238;BME280;23129;49.662;8.448;2024-03-17T02:57:40;101425.63;;;5.74;100.00
37238;BME280;23129;49.662;8.448;2024-03-17T03:00:10;101424.78;;;5.77;100.00
37238;BME280;23129;49.662;8.448;2024-03-17T03:02:39;101430.03;;;5.78;100.00
37238;BME280;23129;49.662;8.448;2024-03-17T03:05:07;101425.69;;;5.79;100.00
37238;BME280;23129;49.662;8.448;2024-03-17T03:07:34;101413.53;;;5.79;100.00
37238;BME280;23129;49.662;8.448;2024-03-17T03:10:02;101424.81;;;5.80;100.00
37238;BME280;23129;49.662;8.448;2024-03-17T03:12:30;101436.09;;;5.80;100.00
37238;BME280;23129;49.662;8.448;2024-03-17T03:14:58;101427.44;;;5.81;100.00
37238;BME280;23129;49.662;8.448;2024-03-17T03:17:25;101430.91;;;5.82;100.00
37238;BME280;23129;49.662;8.448;2024-03-17T03:19:53;101436.13;;;5.82;100.00
37238;BME280;23129;49.662;8.448;2024-03-17T03:22:21;101442.19;;;5.82;100.00
37238;BME280;23129;49.662;8.448;2024-03-17T03:24:52;101443.91;;;5.80;100.00
37238;BME280;23129;49.662;8.448;2024-03-17T03:27:19;101448.22;;;5.75;100.00
37238;BME280;23129;49.662;8.448;2024-03-17T03:29:47;101453.38;;;5.70;100.00
37238;BME280;23129;49.662;8.448;2024-03-17T03:32:14;101456.00;;;5.69;100.00
37238;BME280;23129;49.662;8.448;2024-03-17T03:34:43;101449.91;;;5.70;100.00
37238;BME280;23129;49.662;8.448;2024-03-17T03:37:11;101444.72;;;5.73;100.00
37238;BME280;23129;49.662;8.448;2024-03-17T03:39:39;101455.16;;;5.76;100.00
37238;BME280;23129;49.662;8.448;2024-03-17T03:42:06;101446.50;;;5.80;100.00
37238;BME280;23129;49.662;8.448;2024-03-17T03:44:34;101441.31;;;5.83;100.00
37238;BME280;23129;49.662;8.448;2024-03-17T03:47:01;101440.47;;;5.86;100.00
37238;BME280;23129;49.662;8.448;2024-03-17T03:49:29;101433.56;;;5.86;100.00
37238;BME280;23129;49.662;8.448;2024-03-17T03:51:57;101432.69;;;5.87;100.00
37238;BME280;23129;49.662;8.448;2024-03-17T03:54:25;101429.19;;;5.82;100.00
37238;BME280;23129;49.662;8.448;2024-03-17T03:56:52;101421.34;;;5.78;100.00
37238;BME280;23129;49.662;8.448;2024-03-17T03:59:20;101430.81;;;5.71;100.00
37238;BME280;23129;49.662;8.448;2024-03-17T04:01:48;101428.16;;;5.65;100.00
37238;BME280;23129;49.662;8.448;2024-03-17T04:04:15;101435.06;;;5.57;100.00
37238;BME280;23129;49.662;8.448;2024-03-17T04:06:42;101445.41;;;5.51;100.00
37238;BME280;23129;49.662;8.448;2024-03-17T04:09:10;101442.69;;;5.41;100.00
37238;BME280;23129;49.662;8.448;2024-03-17T04:11:37;101442.66;;;5.35;100.00
37238;BME280;23129;49.662;8.448;2024-03-17T04:14:05;101442.59;;;5.29;100.00
37238;BME280;23129;49.662;8.448;2024-03-17T04:16:32;101438.22;;;5.23;100.00
37238;BME280;23129;49.662;8.448;2024-03-17T04:19:00;101439.91;;;5.18;100.00
37238;BME280;23129;49.662;8.448;2024-03-17T04:21:28;101445.03;;;5.14;100.00
37238;BME280;23129;49.662;8.448;2024-03-17T04:23:55;101439.81;;;5.09;100.00
37238;BME280;23129;49.662;8.448;2024-03-17T04:26:23;101441.47;;;5.04;100.00
37238;BME280;23129;49.662;8.448;2024-03-17T04:28:50;101445.78;;;5.00;100.00
37238;BME280;23129;49.662;8.448;2024-03-17T04:31:22;101437.91;;;4.94;100.00
37238;BME280;23129;49.662;8.448;2024-03-17T04:33:51;101437.00;;;4.92;100.00
37238;BME280;23129;49.662;8.448;2024-03-17T04:36:34;101438.72;;;4.90;100.00
37238;BME280;23129;49.662;8.448;2024-03-17T04:39:10;101442.16;;;4.89;100.00
37238;BME280;23129;49.662;8.448;2024-03-17T04:41:38;101440.44;;;4.88;100.00
37238;BME280;23129;49.662;8.448;2024-03-17T04:44:07;101443.03;;;4.88;100.00
37238;BME280;23129;49.662;8.448;2024-03-17T04:46:34;101443.88;;;4.87;100.00
37238;BME280;23129;49.662;8.448;2024-03-17T04:49:02;101442.16;;;4.89;100.00
37238;BME280;23129;49.662;8.448;2024-03-17T04:51:30;101435.25;;;4.88;100.00
37238;BME280;23129;49.662;8.448;2024-03-17T04:53:59;101436.97;;;4.89;100.00
37238;BME280;23129;49.662;8.448;2024-03-17T04:56:29;101440.44;;;4.88;100.00
37238;BME280;23129;49.662;8.448;2024-03-17T04:58:57;101438.72;;;4.89;100.00
37238;BME280;23129;49.662;8.448;2024-03-17T05:01:24;101432.63;;;4.88;100.00
37238;BME280;23129;49.662;8.448;2024-03-17T05:03:52;101435.25;;;4.88;100.00
37238;BME280;23129;49.662;8.448;2024-03-17T05:06:19;101432.63;;;4.88;100.00
37238;BME280;23129;49.662;8.448;2024-03-17T05:08:47;101436.97;;;4.89;100.00
37238;BME280;23129;49.662;8.448;2024-03-17T05:11:15;101435.25;;;4.88;100.00
37238;BME280;23129;49.662;8.448;2024-03-17T05:13:44;101433.47;;;4.87;100.00
37238;BME280;23129;49.662;8.448;2024-03-17T05:16:12;101443.88;;;4.86;100.00
37238;BME280;23129;49.662;8.448;2024-03-17T05:18:39;101436.94;;;4.85;100.00
37238;BME280;23129;49.662;8.448;2024-03-17T05:21:07;101435.13;;;4.80;100.00
37238;BME280;23129;49.662;8.448;2024-03-17T05:23:36;101437.75;;;4.79;100.00
37238;BME280;23129;49.662;8.448;2024-03-17T05:26:04;101435.13;;;4.79;100.00
37238;BME280;23129;49.662;8.448;2024-03-17T05:28:32;101435.16;;;4.82;100.00
37238;BME280;23129;49.662;8.448;2024-03-17T05:31:00;101436.94;;;4.86;100.00
37238;BME280;23129;49.662;8.448;2024-03-17T05:33:28;101439.56;;;4.89;100.00
37238;BME280;23129;49.662;8.448;2024-03-17T05:35:57;101430.94;;;4.92;100.00
37238;BME280;23129;49.662;8.448;2024-03-17T05:38:26;101448.31;;;4.94;100.00
37238;BME280;23129;49.662;8.448;2024-03-17T05:41:01;101444.84;;;4.95;100.00
37238;BME280;23129;49.662;8.448;2024-03-17T05:43:33;101448.31;;;4.96;100.00
37238;BME280;23129;49.662;8.448;2024-03-17T05:46:04;101447.44;;;4.95;100.00
37238;BME280;23129;49.662;8.448;2024-03-17T05:48:36;101442.25;;;4.94;100.00
37238;BME280;23129;49.662;8.448;2024-03-17T05:51:09;101444.81;;;4.92;100.00
37238;BME280;23129;49.662;8.448;2024-03-17T05:53:37;101449.09;;;4.90;100.00
37238;BME280;23129;49.662;8.448;2024-03-17T05:56:06;101449.09;;;4.90;100.00
37238;BME280;23129;49.662;8.448;2024-03-17T05:58:35;101447.41;;;4.92;100.00
37238;BME280;23129;49.662;8.448;2024-03-17T06:01:04;101449.19;;;4.96;100.00
37238;BME280;23129;49.662;8.448;2024-03-17T06:03:36;101447.53;;;5.03;100.00
37238;BME280;23129;49.662;8.448;2024-03-17T06:06:05;101451.06;;;5.10;100.00
37238;BME280;23129;49.662;8.448;2024-03-17T06:08:36;101451.13;;;5.16;100.00
37238;BME280;23129;49.662;8.448;2024-03-17T06:11:04;101446.88;;;5.22;100.00
37238;BME280;23129;49.662;8.448;2024-03-17T06:13:32;101455.63;;;5.31;100.00
37238;BME280;23129;49.662;8.448;2024-03-17T06:16:02;101439.22;;;5.38;100.00
37238;BME280;23129;49.662;8.448;2024-03-17T06:18:31;101446.22;;;5.46;100.00
37238;BME280;23129;49.662;8.448;2024-03-17T06:20:59;101444.56;;;5.55;100.00
37238;BME280;23129;49.662;8.448;2024-03-17T06:23:26;101441.16;;;5.62;100.00
37238;BME280;23129;49.662;8.448;2024-03-17T06:25:54;101436.94;;;5.71;100.00
37238;BME280;23129;49.662;8.448;2024-03-17T06:28:23;101436.97;;;5.79;100.00
37238;BME280;23129;49.662;8.448;2024-03-17T06:30:57;101436.19;;;5.86;100.00
37238;BME280;23129;49.662;8.448;2024-03-17T06:33:26;101438.84;;;5.94;100.00
37238;BME280;23129;49.662;8.448;2024-03-17T06:35:55;101436.31;;;6.02;100.00
37238;BME280;23129;49.662;8.448;2024-03-17T06:38:23;101433.75;;;6.12;100.00
37238;BME280;23129;49.662;8.448;2024-03-17T06:40:51;101433.84;;;6.23;100.00
37238;BME280;23129;49.662;8.448;2024-03-17T06:43:19;101429.56;;;6.31;100.00
37238;BME280;23129;49.662;8.448;2024-03-17T06:45:57;101427.84;;;6.43;100.00
37238;BME280;23129;49.662;8.448;2024-03-17T06:48:26;101429.66;;;6.56;100.00
37238;BME280;23129;49.662;8.448;2024-03-17T06:50:54;101429.72;;;6.71;100.00
37238;BME280;23129;49.662;8.448;2024-03-17T06:53:22;101430.69;;;6.92;100.00
37238;BME280;23129;49.662;8.448;2024-03-17T06:55:53;101431.59;;;7.09;100.00
37238;BME280;23129;49.662;8.448;2024-03-17T06:58:25;101422.94;;;7.35;100.00
37238;BME280;23129;49.662;8.448;2024-03-17T07:00:58;101422.94;;;7.56;100.00
37238;BME280;23129;49.662;8.448;2024-03-17T07:03:28;101429.06;;;7.72;100.00
37238;BME280;23129;49.662;8.448;2024-03-17T07:05:59;101422.94;;;7.84;100.00
37238;BME280;23129;49.662;8.448;2024-03-17T07:08:29;101421.19;;;7.92;100.00
37238;BME280;23129;49.662;8.448;2024-03-17T07:11:09;101414.22;;;8.00;100.00
37238;BME280;23129;49.662;8.448;2024-03-17T07:13:38;101411.59;;;8.05;100.00
37238;BME280;23129;49.662;8.448;2024-03-17T07:16:07;101409.84;;;8.17;100.00
37238;BME280;23129;49.662;8.448;2024-03-17T07:18:36;101412.44;;;8.27;100.00
37238;BME280;23129;49.662;8.448;2024-03-17T07:21:04;101414.13;;;8.37;100.00
37238;BME280;23129;49.662;8.448;2024-03-17T07:23:32;101403.56;;;8.69;100.00
37238;BME280;23129;49.662;8.448;2024-03-17T07:26:01;101406.69;;;9.34;100.00
37238;BME280;23129;49.662;8.448;2024-03-17T07:28:31;101407.81;;;10.05;100.00
37238;BME280;23129;49.662;8.448;2024-03-17T07:31:00;101398.34;;;10.71;100.00
37238;BME280;23129;49.662;8.448;2024-03-17T07:33:28;101405.50;;;11.22;100.00
37238;BME280;23129;49.662;8.448;2024-03-17T07:35:57;101394.28;;;11.66;100.00
37238;BME280;23129;49.662;8.448;2024-03-17T07:38:28;101399.56;;;12.14;100.00
37238;BME280;23129;49.662;8.448;2024-03-17T07:41:04;101389.94;;;12.58;100.00
37238;BME280;23129;49.662;8.448;2024-03-17T07:43:36;101387.47;;;12.92;100.00
37238;BME280;23129;49.662;8.448;2024-03-17T07:46:12;101381.44;;;13.24;100.00
37238;BME280;23129;49.662;8.448;2024-03-17T07:48:41;101385.16;;;13.53;100.00
37238;BME280;23129;49.662;8.448;2024-03-17T07:51:11;101385.22;;;13.86;100.00
37238;BME280;23129;49.662;8.448;2024-03-17T07:53:40;101386.25;;;14.11;100.00
37238;BME280;23129;49.662;8.448;2024-03-17T07:56:09;101391.56;;;14.43;100.00
37238;BME280;23129;49.662;8.448;2024-03-17T07:58:40;101387.13;;;14.74;100.00
37238;BME280;23129;49.662;8.448;2024-03-17T08:01:12;101392.91;;;15.17;100.00
37238;BME280;23129;49.662;8.448;2024-03-17T08:03:43;101395.81;;;15.62;100.00
37238;BME280;23129;49.662;8.448;2024-03-17T08:06:11;101392.28;;;15.88;100.00
37238;BME280;23129;49.662;8.448;2024-03-17T08:08:39;101394.53;;;16.01;100.00
37238;BME280;23129;49.662;8.448;2024-03-17T08:11:07;101401.88;;;15.92;100.00
37238;BME280;23129;49.662;8.448;2024-03-17T08:13:34;101393.00;;;15.93;100.00
37238;BME280;23129;49.662;8.448;2024-03-17T08:16:04;101404.91;;;16.07;100.00
37238;BME280;23129;49.662;8.448;2024-03-17T08:18:33;101401.75;;;15.95;100.00
37238;BME280;23129;49.662;8.448;2024-03-17T08:21:01;101402.78;;;15.65;100.00
37238;BME280;23129;49.662;8.448;2024-03-17T08:23:30;101399.56;;;15.55;100.00
37238;BME280;23129;49.662;8.448;2024-03-17T08:25:59;101396.06;;;15.55;100.00
37238;BME280;23129;49.662;8.448;2024-03-17T08:28:28;101399.63;;;15.53;100.00
37238;BME280;23129;49.662;8.448;2024-03-17T08:31:00;101399.34;;;15.61;100.00
37238;BME280;23129;49.662;8.448;2024-03-17T08:33:28;101395.25;;;15.79;100.00
37238;BME280;23129;49.662;8.448;2024-03-17T08:35:57;101392.94;;;15.70;100.00
37238;BME280;23129;49.662;8.448;2024-03-17T08:38:26;101396.13;;;15.53;100.00
37238;BME280;23129;49.662;8.448;2024-03-17T08:40:55;101391.25;;;15.41;100.00
37238;BME280;23129;49.662;8.448;2024-03-17T08:43:24;101390.97;;;15.48;100.00
37238;BME280;23129;49.662;8.448;2024-03-17T08:45:59;101379.69;;;15.43;100.00
37238;BME280;23129;49.662;8.448;2024-03-17T08:48:30;101375.72;;;15.30;100.00
37238;BME280;23129;49.662;8.448;2024-03-17T08:50:59;101377.84;;;15.19;100.00
37238;BME280;23129;49.662;8.448;2024-03-17T08:53:28;101383.22;;;15.16;100.00
37238;BME280;23129;49.662;8.448;2024-03-17T08:55:56;101378.31;;;15.03;100.00
37238;BME280;23129;49.662;8.448;2024-03-17T08:58:25;101369.00;;;14.92;100.00
37238;BME280;23129;49.662;8.448;2024-03-17T09:00:52;101377.47;;;14.75;100.00
37238;BME280;23129;49.662;8.448;2024-03-17T09:03:20;101370.97;;;14.55;100.00
37238;BME280;23129;49.662;8.448;2024-03-17T09:05:48;101381.13;;;14.38;100.00
37238;BME280;23129;49.662;8.448;2024-03-17T09:08:21;101383.84;;;14.35;100.00
37238;BME280;23129;49.662;8.448;2024-03-17T09:10:50;101384.59;;;14.40;100.00
37238;BME280;23129;49.662;8.448;2024-03-17T09:13:20;101389.03;;;14.38;100.00
37238;BME280;23129;49.662;8.448;2024-03-17T09:16:08;101388.53;;;14.56;100.00
37238;BME280;23129;49.662;8.448;2024-03-17T09:18:39;101381.16;;;14.69;100.00
37238;BME280;23129;49.662;8.448;2024-03-17T09:21:08;101372.84;;;14.81;100.00
37238;BME280;23129;49.662;8.448;2024-03-17T09:23:36;101362.16;;;15.14;100.00
37238;BME280;23129;49.662;8.448;2024-03-17T09:26:07;101361.06;;;15.46;100.00
37238;BME280;23129;49.662;8.448;2024-03-17T09:28:36;101361.78;;;15.78;100.00
37238;BME280;23129;49.662;8.448;2024-03-17T09:31:04;101363.56;;;16.03;100.00
37238;BME280;23129;49.662;8.448;2024-03-17T09:33:34;101360.84;;;16.29;100.00
37238;BME280;23129;49.662;8.448;2024-03-17T09:36:04;101369.50;;;16.58;100.00
37238;BME280;23129;49.662;8.448;2024-03-17T09:38:34;101370.75;;;16.95;100.00
37238;BME280;23129;49.662;8.448;2024-03-17T09:41:02;101362.41;;;17.26;100.00
37238;BME280;23129;49.662;8.448;2024-03-17T09:43:33;101364.44;;;17.41;100.00
37238;BME280;23129;49.662;8.448;2024-03-17T09:46:05;101358.69;;;17.52;100.00
37238;BME280;23129;49.662;8.448;2024-03-17T09:48:34;101364.91;;;17.51;100.00
37238;BME280;23129;49.662;8.448;2024-03-17T09:51:03;101363.84;;;17.55;100.00
37238;BME280;23129;49.662;8.448;2024-03-17T09:53:34;101358.75;;;17.71;100.00
37238;BME280;23129;49.662;8.448;2024-03-17T09:56:13;101353.69;;;17.87;100.00
37238;BME280;23129;49.662;8.448;2024-03-17T09:58:43;101350.41;;;18.00;100.00
37238;BME280;23129;49.662;8.448;2024-03-17T10:01:10;101355.78;;;18.19;100.00
37238;BME280;23129;49.662;8.448;2024-03-17T10:06:13;101360.53;;;18.13;100.00
37238;BME280;23129;49.662;8.448;2024-03-17T10:08:48;101356.88;;;17.95;100.00
37238;BME280;23129;49.662;8.448;2024-03-17T10:11:18;101359.13;;;17.84;100.00
37238;BME280;23129;49.662;8.448;2024-03-17T10:13:47;101361.00;;;17.82;100.00
37238;BME280;23129;49.662;8.448;2024-03-17T10:16:26;101355.88;;;17.77;100.00
37238;BME280;23129;49.662;8.448;2024-03-17T10:21:40;101352.59;;;17.70;100.00
37238;BME280;23129;49.662;8.448;2024-03-17T10:24:13;101352.97;;;17.61;100.00
37238;BME280;23129;49.662;8.448;2024-03-17T10:26:47;101351.72;;;17.49;100.00
37238;BME280;23129;49.662;8.448;2024-03-17T10:29:30;101352.94;;;17.41;100.00
37238;BME280;23129;49.662;8.448;2024-03-17T10:32:15;101354.28;;;17.30;100.00
37238;BME280;23129;49.662;8.448;2024-03-17T10:34:43;101357.22;;;17.23;100.00
37238;BME280;23129;49.662;8.448;2024-03-17T10:37:13;101357.47;;;17.17;100.00
37238;BME280;23129;49.662;8.448;2024-03-17T10:39:42;101350.75;;;17.08;100.00
37238;BME280;23129;49.662;8.448;2024-03-17T10:42:11;101357.84;;;16.85;100.00
37238;BME280;23129;49.662;8.448;2024-03-17T10:44:43;101363.59;;;16.73;100.00
37238;BME280;23129;49.662;8.448;2024-03-17T10:47:23;101357.97;;;16.82;100.00
37238;BME280;23129;49.662;8.448;2024-03-17T10:49:52;101350.72;;;17.09;100.00
37238;BME280;23129;49.662;8.448;2024-03-17T10:52:22;101348.28;;;17.47;100.00
37238;BME280;23129;49.662;8.448;2024-03-17T10:54:53;101346.44;;;17.90;100.00
37238;BME280;23129;49.662;8.448;2024-03-17T10:57:46;101337.16;;;18.40;100.00
37238;BME280;23129;49.662;8.448;2024-03-17T11:00:16;101323.56;;;18.65;100.00
37238;BME280;23129;49.662;8.448;2024-03-17T11:02:46;101327.69;;;18.91;100.00
37238;BME280;23129;49.662;8.448;2024-03-17T11:05:28;101328.53;;;18.91;100.00
37238;BME280;23129;49.662;8.448;2024-03-17T11:07:58;101323.19;;;18.54;100.00
37238;BME280;23129;49.662;8.448;2024-03-17T11:10:35;101327.75;;;18.12;100.00
37238;BME280;23129;49.662;8.448;2024-03-17T11:13:04;101325.28;;;17.68;100.00
37238;BME280;23129;49.662;8.448;2024-03-17T11:20:41;101319.09;;;17.47;100.00
37238;BME280;23129;49.662;8.448;2024-03-17T11:23:10;101316.09;;;17.55;100.00
37238;BME280;23129;49.662;8.448;2024-03-17T11:25:52;101318.75;;;17.75;100.00
37238;BME280;23129;49.662;8.448;2024-03-17T11:31:43;101303.97;;;18.30;100.00
37238;BME280;23129;49.662;8.448;2024-03-17T11:34:32;101297.94;;;18.83;100.00
37238;BME280;23129;49.662;8.448;2024-03-17T11:37:01;101294.16;;;19.41;100.00
37238;BME280;23129;49.662;8.448;2024-03-17T11:42:15;101291.53;;;20.24;100.00
37238;BME280;23129;49.662;8.448;2024-03-17T11:44:54;101285.91;;;20.46;100.00
37238;BME280;23129;49.662;8.448;2024-03-17T11:47:21;101288.31;;;20.67;100.00
37238;BME280;23129;49.662;8.448;2024-03-17T11:49:51;101283.97;;;20.48;100.00
37238;BME280;23129;49.662;8.448;2024-03-17T11:52:19;101282.09;;;20.35;100.00
37238;BME280;23129;49.662;8.448;2024-03-17T11:54:47;101288.44;;;20.16;100.00
37238;BME280;23129;49.662;8.448;2024-03-17T11:57:22;101280.72;;;19.94;100.00
37238;BME280;23129;49.662;8.448;2024-03-17T11:59:51;101286.88;;;19.79;100.00
37238;BME280;23129;49.662;8.448;2024-03-17T12:02:29;101278.19;;;19.58;100.00
37238;BME280;23129;49.662;8.448;2024-03-17T12:05:00;101279.22;;;19.38;100.00
37238;BME280;23129;49.662;8.448;2024-03-17T12:07:26;101282.03;;;19.18;100.00
37238;BME280;23129;49.662;8.448;2024-03-17T12:09:56;101282.78;;;19.02;100.00
37238;BME280;23129;49.662;8.448;2024-03-17T12:12:25;101282.22;;;18.96;100.00
37238;BME280;23129;49.662;8.448;2024-03-17T12:15:01;101281.19;;;18.81;100.00
37238;BME280;23129;49.662;8.448;2024-03-17T12:17:32;101286.72;;;18.57;100.00
37238;BME280;23129;49.662;8.448;2024-03-17T12:19:58;101280.94;;;18.49;100.00
37238;BME280;23129;49.662;8.448;2024-03-17T12:22:27;101286.72;;;18.57;100.00
37238;BME280;23129;49.662;8.448;2024-03-17T12:24:59;101278.13;;;18.52;100.00
37238;BME280;23129;49.662;8.448;2024-03-17T12:27:27;101281.41;;;18.38;100.00
37238;BME280;23129;49.662;8.448;2024-03-17T12:29:55;101270.66;;;18.22;100.00
37238;BME280;23129;49.662;8.448;2024-03-17T12:32:24;101267.91;;;18.05;100.00
37238;BME280;23129;49.662;8.448;2024-03-17T12:34:57;101265.03;;;17.91;100.00
37238;BME280;23129;49.662;8.448;2024-03-17T12:37:27;101258.28;;;17.84;100.00
37238;BME280;23129;49.662;8.448;2024-03-17T12:39:57;101267.28;;;17.79;100.00
37238;BME280;23129;49.662;8.448;2024-03-17T12:42:29;101258.41;;;17.81;100.00
37238;BME280;23129;49.662;8.448;2024-03-17T12:44:59;101253.09;;;17.81;100.00
37238;BME280;23129;49.662;8.448;2024-03-17T12:47:28;101247.72;;;17.82;100.00
37238;BME280;23129;49.662;8.448;2024-03-17T12:49:57;101249.19;;;17.89;100.00
37238;BME280;23129;49.662;8.448;2024-03-17T12:55:04;101246.06;;;17.79;100.00
37238;BME280;23129;49.662;8.448;2024-03-17T13:00:47;101236.09;;;17.64;100.00
37238;BME280;23129;49.662;8.448;2024-03-17T13:03:31;101234.81;;;17.54;100.00
37238;BME280;23129;49.662;8.448;2024-03-17T13:06:01;101236.13;;;17.44;100.00
37238;BME280;23129;49.662;8.448;2024-03-17T13:08:31;101223.41;;;17.31;100.00
37238;BME280;23129;49.662;8.448;2024-03-17T13:11:01;101212.41;;;17.20;100.00
37238;BME280;23129;49.662;8.448;2024-03-17T13:13:30;101214.53;;;17.12;100.00
37238;BME280;23129;49.662;8.448;2024-03-17T13:15:58;101212.31;;;17.01;100.00
37238;BME280;23129;49.662;8.448;2024-03-17T13:18:26;101208.47;;;16.88;100.00
37238;BME280;23129;49.662;8.448;2024-03-17T13:20:53;101202.72;;;16.78;100.00